sensor_id;sensor_type;location;lat;lon;timestamp;temperature;humidity
56234;DHT22;42141;53.240;6.580;2023-06-19T00:01:32;21.00;99.90
56234;DHT22;42141;53.240;6.580;2023-06-19T00:03:57;21.00;99.90
56234;DHT22;42141;53.240;6.580;2023-06-19T00:06:23;20.90;99.90
56234;DHT22;42141;53.240;6.580;2023-06-19T00:08:49;21.00;99.90
56234;DHT22;42141;53.240;6.580;2023-06-19T00:11:15;20.90;99.90
56234;DHT22;42141;53.240;6.580;2023-06-19T00:13:40;20.90;99.90
56234;DHT22;42141;53.240;6.580;2023-06-19T00:16:06;20.90;99.90
56234;DHT22;42141;53.240;6.580;2023-06-19T00:18:32;20.90;99.90
56234;DHT22;42141;53.240;6.580;2023-06-19T00:21:06;20.90;99.90
56234;DHT22;42141;53.240;6.580;2023-06-19T00:23:31;20.90;99.90
56234;DHT22;42141;53.240;6.580;2023-06-19T00:25:57;20.90;99.90
56234;DHT22;42141;53.240;6.580;2023-06-19T00:28:24;20.90;99.90
56234;DHT22;42141;53.240;6.580;2023-06-19T00:30:49;20.90;99.90
56234;DHT22;42141;53.240;6.580;2023-06-19T00:33:17;20.90;99.90
56234;DHT22;42141;53.240;6.580;2023-06-19T00:35:42;20.90;99.90
56234;DHT22;42141;53.240;6.580;2023-06-19T00:38:09;20.90;99.90
56234;DHT22;42141;53.240;6.580;2023-06-19T00:40:35;21.00;99.90
56234;DHT22;42141;53.240;6.580;2023-06-19T00:43:01;20.90;99.90
56234;DHT22;42141;53.240;6.580;2023-06-19T00:45:27;21.00;99.90
56234;DHT22;42141;53.240;6.580;2023-06-19T00:47:54;20.90;99.90
56234;DHT22;42141;53.240;6.580;2023-06-19T00:50:21;21.00;99.90
56234;DHT22;42141;53.240;6.580;2023-06-19T00:52:47;21.00;99.90
56234;DHT22;42141;53.240;6.580;2023-06-19T00:55:13;20.90;99.90
56234;DHT22;42141;53.240;6.580;2023-06-19T00:57:40;21.00;99.90
56234;DHT22;42141;53.240;6.580;2023-06-19T01:00:07;21.00;99.90
56234;DHT22;42141;53.240;6.580;2023-06-19T01:02:34;20.90;99.90
56234;DHT22;42141;53.240;6.580;2023-06-19T01:05:00;21.00;99.90
56234;DHT22;42141;53.240;6.580;2023-06-19T01:07:43;21.00;99.90
56234;DHT22;42141;53.240;6.580;2023-06-19T01:10:13;21.00;99.90
56234;DHT22;42141;53.240;6.580;2023-06-19T01:12:46;21.00;99.90
56234;DHT22;42141;53.240;6.580;2023-06-19T01:15:16;21.00;99.90
56234;DHT22;42141;53.240;6.580;2023-06-19T01:17:43;21.00;99.90
56234;DHT22;42141;53.240;6.580;2023-06-19T01:20:11;21.00;99.90
56234;DHT22;42141;53.240;6.580;2023-06-19T01:22:37;21.00;99.90
56234;DHT22;42141;53.240;6.580;2023-06-19T01:25:06;21.00;99.90
56234;DHT22;42141;53.240;6.580;2023-06-19T01:27:35;19.20;99.90
56234;DHT22;42141;53.240;6.580;2023-06-19T01:30:03;21.00;99.90
56234;DHT22;42141;53.240;6.580;2023-06-19T01:32:55;21.00;99.90
56234;DHT22;42141;53.240;6.580;2023-06-19T01:35:26;21.00;99.90
56234;DHT22;42141;53.240;6.580;2023-06-19T01:37:52;21.00;99.90
56234;DHT22;42141;53.240;6.580;2023-06-19T01:40:20;21.10;99.90
56234;DHT22;42141;53.240;6.580;2023-06-19T01:42:54;21.00;99.90
56234;DHT22;42141;53.240;6.580;2023-06-19T01:45:20;21.10;99.90
56234;DHT22;42141;53.240;6.580;2023-06-19T01:47:46;21.10;99.90
56234;DHT22;42141;53.240;6.580;2023-06-19T01:50:12;21.10;99.90
56234;DHT22;42141;53.240;6.580;2023-06-19T01:52:38;21.10;99.90
56234;DHT22;42141;53.240;6.580;2023-06-19T01:55:04;21.10;99.90
56234;DHT22;42141;53.240;6.580;2023-06-19T01:57:31;21.10;99.90
56234;DHT22;42141;53.240;6.580;2023-06-19T01:59:57;21.10;99.90
56234;DHT22;42141;53.240;6.580;2023-06-19T02:02:23;21.10;99.90
56234;DHT22;42141;53.240;6.580;2023-06-19T02:04:48;21.10;99.90
56234;DHT22;42141;53.240;6.580;2023-06-19T02:07:14;21.10;99.90
56234;DHT22;42141;53.240;6.580;2023-06-19T02:09:40;21.10;99.90
56234;DHT22;42141;53.240;6.580;2023-06-19T02:12:07;21.10;99.90
56234;DHT22;42141;53.240;6.580;2023-06-19T02:14:33;21.10;99.90
56234;DHT22;42141;53.240;6.580;2023-06-19T02:17:01;21.10;99.90
56234;DHT22;42141;53.240;6.580;2023-06-19T02:19:27;21.00;99.90
56234;DHT22;42141;53.240;6.580;2023-06-19T02:21:53;21.00;99.90
56234;DHT22;42141;53.240;6.580;2023-06-19T02:24:18;21.00;99.90
56234;DHT22;42141;53.240;6.580;2023-06-19T02:26:44;21.00;99.90
56234;DHT22;42141;53.240;6.580;2023-06-19T02:29:10;20.90;99.90
56234;DHT22;42141;53.240;6.580;2023-06-19T02:31:36;20.90;99.90
56234;DHT22;42141;53.240;6.580;2023-06-19T02:34:01;20.90;99.90
56234;DHT22;42141;53.240;6.580;2023-06-19T02:36:27;20.90;99.90
56234;DHT22;42141;53.240;6.580;2023-06-19T02:38:54;20.90;99.90
56234;DHT22;42141;53.240;6.580;2023-06-19T02:41:19;20.90;99.90
56234;DHT22;42141;53.240;6.580;2023-06-19T02:43:45;20.90;99.90
56234;DHT22;42141;53.240;6.580;2023-06-19T02:46:15;20.90;99.90
56234;DHT22;42141;53.240;6.580;2023-06-19T02:48:40;20.90;99.90
56234;DHT22;42141;53.240;6.580;2023-06-19T02:51:06;20.90;99.90
56234;DHT22;42141;53.240;6.580;2023-06-19T02:53:32;20.90;99.90
56234;DHT22;42141;53.240;6.580;2023-06-19T02:55:58;20.90;99.90
56234;DHT22;42141;53.240;6.580;2023-06-19T02:58:23;21.00;99.90
56234;DHT22;42141;53.240;6.580;2023-06-19T03:00:49;21.00;99.90
56234;DHT22;42141;53.240;6.580;2023-06-19T03:03:15;21.00;99.90
56234;DHT22;42141;53.240;6.580;2023-06-19T03:05:40;21.10;99.70
56234;DHT22;42141;53.240;6.580;2023-06-19T03:08:06;21.10;99.60
56234;DHT22;42141;53.240;6.580;2023-06-19T03:10:32;21.10;99.30
56234;DHT22;42141;53.240;6.580;2023-06-19T03:12:58;21.20;99.20
56234;DHT22;42141;53.240;6.580;2023-06-19T03:15:25;21.20;99.10
56234;DHT22;42141;53.240;6.580;2023-06-19T03:17:52;21.20;99.00
56234;DHT22;42141;53.240;6.580;2023-06-19T03:20:19;21.20;98.90
56234;DHT22;42141;53.240;6.580;2023-06-19T03:22:46;21.10;99.10
56234;DHT22;42141;53.240;6.580;2023-06-19T03:25:12;21.20;98.90
56234;DHT22;42141;53.240;6.580;2023-06-19T03:27:38;21.20;98.90
56234;DHT22;42141;53.240;6.580;2023-06-19T03:30:07;21.30;99.30
56234;DHT22;42141;53.240;6.580;2023-06-19T03:32:34;21.20;99.10
56234;DHT22;42141;53.240;6.580;2023-06-19T03:35:02;21.10;99.10
56234;DHT22;42141;53.240;6.580;2023-06-19T03:37:29;21.20;99.10
56234;DHT22;42141;53.240;6.580;2023-06-19T03:39:58;21.20;99.20
56234;DHT22;42141;53.240;6.580;2023-06-19T03:42:23;21.10;99.40
56234;DHT22;42141;53.240;6.580;2023-06-19T03:44:49;21.10;99.50
56234;DHT22;42141;53.240;6.580;2023-06-19T03:47:15;20.30;99.20
56234;DHT22;42141;53.240;6.580;2023-06-19T03:49:42;21.10;99.30
56234;DHT22;42141;53.240;6.580;2023-06-19T03:52:08;21.10;99.40
56234;DHT22;42141;53.240;6.580;2023-06-19T03:54:34;21.00;99.50
56234;DHT22;42141;53.240;6.580;2023-06-19T03:56:59;21.10;99.60
56234;DHT22;42141;53.240;6.580;2023-06-19T03:59:25;21.10;99.20
56234;DHT22;42141;53.240;6.580;2023-06-19T04:01:51;21.10;99.20
56234;DHT22;42141;53.240;6.580;2023-06-19T04:04:17;19.50;99.10
56234;DHT22;42141;53.240;6.580;2023-06-19T04:06:42;21.20;99.40
56234;DHT22;42141;53.240;6.580;2023-06-19T04:09:08;21.20;99.30
56234;DHT22;42141;53.240;6.580;2023-06-19T04:11:34;21.30;99.30
56234;DHT22;42141;53.240;6.580;2023-06-19T04:14:00;21.30;99.30
56234;DHT22;42141;53.240;6.580;2023-06-19T04:16:26;21.30;99.40
56234;DHT22;42141;53.240;6.580;2023-06-19T04:18:58;19.60;99.50
56234;DHT22;42141;53.240;6.580;2023-06-19T04:21:23;21.40;99.90
56234;DHT22;42141;53.240;6.580;2023-06-19T04:23:50;21.50;99.90
56234;DHT22;42141;53.240;6.580;2023-06-19T04:26:15;21.50;99.70
56234;DHT22;42141;53.240;6.580;2023-06-19T04:28:42;21.50;99.80
56234;DHT22;42141;53.240;6.580;2023-06-19T04:31:13;21.50;99.90
56234;DHT22;42141;53.240;6.580;2023-06-19T04:33:45;20.60;99.60
56234;DHT22;42141;53.240;6.580;2023-06-19T04:36:11;23.10;99.90
56234;DHT22;42141;53.240;6.580;2023-06-19T04:38:37;21.50;99.90
56234;DHT22;42141;53.240;6.580;2023-06-19T04:41:02;21.50;99.90
56234;DHT22;42141;53.240;6.580;2023-06-19T04:43:28;21.50;99.90
56234;DHT22;42141;53.240;6.580;2023-06-19T04:45:54;21.50;99.90
56234;DHT22;42141;53.240;6.580;2023-06-19T04:48:19;21.50;99.90
56234;DHT22;42141;53.240;6.580;2023-06-19T04:50:51;21.50;99.90
56234;DHT22;42141;53.240;6.580;2023-06-19T04:53:16;21.50;99.90
56234;DHT22;42141;53.240;6.580;2023-06-19T04:55:42;21.50;99.90
56234;DHT22;42141;53.240;6.580;2023-06-19T04:58:09;21.50;99.90
56234;DHT22;42141;53.240;6.580;2023-06-19T05:00:34;21.50;99.90
56234;DHT22;42141;53.240;6.580;2023-06-19T05:03:00;21.50;99.90
56234;DHT22;42141;53.240;6.580;2023-06-19T05:05:28;21.50;99.90
56234;DHT22;42141;53.240;6.580;2023-06-19T05:07:53;21.50;99.90
56234;DHT22;42141;53.240;6.580;2023-06-19T05:10:19;21.40;99.90
56234;DHT22;42141;53.240;6.580;2023-06-19T05:12:45;21.40;99.90
56234;DHT22;42141;53.240;6.580;2023-06-19T05:15:12;21.40;99.90
56234;DHT22;42141;53.240;6.580;2023-06-19T05:17:38;21.40;99.90
56234;DHT22;42141;53.240;6.580;2023-06-19T05:20:05;21.40;99.90
56234;DHT22;42141;53.240;6.580;2023-06-19T05:22:32;21.40;99.90
56234;DHT22;42141;53.240;6.580;2023-06-19T05:25:00;21.40;99.90
56234;DHT22;42141;53.240;6.580;2023-06-19T05:27:26;21.40;99.90
56234;DHT22;42141;53.240;6.580;2023-06-19T05:29:51;21.40;99.90
56234;DHT22;42141;53.240;6.580;2023-06-19T05:32:17;21.40;99.90
56234;DHT22;42141;53.240;6.580;2023-06-19T05:34:43;21.40;99.90
56234;DHT22;42141;53.240;6.580;2023-06-19T05:37:08;21.40;99.90
56234;DHT22;42141;53.240;6.580;2023-06-19T05:39:34;21.40;99.90
56234;DHT22;42141;53.240;6.580;2023-06-19T05:42:00;21.40;99.90
56234;DHT22;42141;53.240;6.580;2023-06-19T05:44:26;21.40;99.90
56234;DHT22;42141;53.240;6.580;2023-06-19T05:46:51;19.80;99.90
56234;DHT22;42141;53.240;6.580;2023-06-19T05:49:17;21.50;99.90
56234;DHT22;42141;53.240;6.580;2023-06-19T05:51:43;21.50;99.90
56234;DHT22;42141;53.240;6.580;2023-06-19T05:54:09;21.60;99.90
56234;DHT22;42141;53.240;6.580;2023-06-19T05:56:35;21.70;99.90
56234;DHT22;42141;53.240;6.580;2023-06-19T05:59:02;21.80;99.90
56234;DHT22;42141;53.240;6.580;2023-06-19T06:01:31;21.80;99.90
56234;DHT22;42141;53.240;6.580;2023-06-19T06:03:57;21.90;99.90
56234;DHT22;42141;53.240;6.580;2023-06-19T06:06:23;21.90;99.90
56234;DHT22;42141;53.240;6.580;2023-06-19T06:08:49;21.60;99.90
56234;DHT22;42141;53.240;6.580;2023-06-19T06:11:16;21.80;99.90
56234;DHT22;42141;53.240;6.580;2023-06-19T06:13:42;21.80;99.90
56234;DHT22;42141;53.240;6.580;2023-06-19T06:16:08;21.70;99.90
56234;DHT22;42141;53.240;6.580;2023-06-19T06:18:34;21.70;99.90
56234;DHT22;42141;53.240;6.580;2023-06-19T06:20:59;21.60;99.90
56234;DHT22;42141;53.240;6.580;2023-06-19T06:23:25;21.70;99.90
56234;DHT22;42141;53.240;6.580;2023-06-19T06:25:51;21.70;99.90
56234;DHT22;42141;53.240;6.580;2023-06-19T06:28:17;21.70;99.90
56234;DHT22;42141;53.240;6.580;2023-06-19T06:30:43;21.70;99.90
56234;DHT22;42141;53.240;6.580;2023-06-19T06:33:09;21.70;99.90
56234;DHT22;42141;53.240;6.580;2023-06-19T06:35:35;22.30;99.90
56234;DHT22;42141;53.240;6.580;2023-06-19T06:38:06;20.10;99.90
56234;DHT22;42141;53.240;6.580;2023-06-19T06:44:19;21.00;99.90
56234;DHT22;42141;53.240;6.580;2023-06-19T06:47:04;21.70;99.90
56234;DHT22;42141;53.240;6.580;2023-06-19T06:54:08;21.40;99.90
56234;DHT22;42141;53.240;6.580;2023-06-19T06:57:02;21.80;99.90
56234;DHT22;42141;53.240;6.580;2023-06-19T07:00:05;21.60;99.90
56234;DHT22;42141;53.240;6.580;2023-06-19T07:02:38;19.80;99.90
56234;DHT22;42141;53.240;6.580;2023-06-19T07:12:28;20.50;99.90
56234;DHT22;42141;53.240;6.580;2023-06-19T07:14:54;21.40;99.90
56234;DHT22;42141;53.240;6.580;2023-06-19T07:24:10;20.70;99.90
56234;DHT22;42141;53.240;6.580;2023-06-19T07:35:15;20.40;99.90
56234;DHT22;42141;53.240;6.580;2023-06-19T08:07:58;19.90;99.90
56234;DHT22;42141;53.240;6.580;2023-06-19T08:39:51;20.50;99.90
56234;DHT22;42141;53.240;6.580;2023-06-19T08:42:37;20.80;99.90
56234;DHT22;42141;53.240;6.580;2023-06-19T08:45:34;21.20;99.90
56234;DHT22;42141;53.240;6.580;2023-06-19T08:48:01;21.20;99.90
56234;DHT22;42141;53.240;6.580;2023-06-19T08:50:30;21.50;99.90
56234;DHT22;42141;53.240;6.580;2023-06-19T08:52:56;21.50;99.90
56234;DHT22;42141;53.240;6.580;2023-06-19T08:55:23;21.60;99.90
56234;DHT22;42141;53.240;6.580;2023-06-19T08:57:55;21.50;99.90
56234;DHT22;42141;53.240;6.580;2023-06-19T09:00:29;21.50;99.90
56234;DHT22;42141;53.240;6.580;2023-06-19T09:03:02;21.40;99.90
56234;DHT22;42141;53.240;6.580;2023-06-19T09:05:41;21.40;99.90
56234;DHT22;42141;53.240;6.580;2023-06-19T09:08:13;21.40;99.90
56234;DHT22;42141;53.240;6.580;2023-06-19T09:10:42;20.40;99.90
56234;DHT22;42141;53.240;6.580;2023-06-19T09:13:10;21.40;99.90
56234;DHT22;42141;53.240;6.580;2023-06-19T09:15:43;20.50;99.90
56234;DHT22;42141;53.240;6.580;2023-06-19T09:18:10;21.70;99.90
56234;DHT22;42141;53.240;6.580;2023-06-19T09:20:42;21.30;99.90
56234;DHT22;42141;53.240;6.580;2023-06-19T09:23:18;22.00;99.90
56234;DHT22;42141;53.240;6.580;2023-06-19T09:25:54;21.30;99.90
56234;DHT22;42141;53.240;6.580;2023-06-19T09:28:24;23.00;99.90
56234;DHT22;42141;53.240;6.580;2023-06-19T09:31:01;22.20;99.90
56234;DHT22;42141;53.240;6.580;2023-06-19T09:33:32;22.30;99.90
56234;DHT22;42141;53.240;6.580;2023-06-19T09:36:04;22.40;99.90
56234;DHT22;42141;53.240;6.580;2023-06-19T09:38:52;22.40;99.90
56234;DHT22;42141;53.240;6.580;2023-06-19T09:41:21;23.30;99.90
56234;DHT22;42141;53.240;6.580;2023-06-19T09:43:50;22.40;99.90
56234;DHT22;42141;53.240;6.580;2023-06-19T09:46:20;21.70;99.90
56234;DHT22;42141;53.240;6.580;2023-06-19T09:48:54;22.30;99.90
56234;DHT22;42141;53.240;6.580;2023-06-19T09:51:30;21.60;99.90
56234;DHT22;42141;53.240;6.580;2023-06-19T09:53:58;21.90;99.90
56234;DHT22;42141;53.240;6.580;2023-06-19T09:56:25;21.90;99.90
56234;DHT22;42141;53.240;6.580;2023-06-19T09:58:54;21.90;99.90
56234;DHT22;42141;53.240;6.580;2023-06-19T10:01:22;21.80;99.90
56234;DHT22;42141;53.240;6.580;2023-06-19T10:04:11;21.80;99.90
56234;DHT22;42141;53.240;6.580;2023-06-19T10:06:45;21.90;99.90
56234;DHT22;42141;53.240;6.580;2023-06-19T10:09:15;20.80;99.90
56234;DHT22;42141;53.240;6.580;2023-06-19T10:11:48;21.80;99.90
56234;DHT22;42141;53.240;6.580;2023-06-19T10:14:22;21.90;99.90
56234;DHT22;42141;53.240;6.580;2023-06-19T10:16:51;21.50;99.90
56234;DHT22;42141;53.240;6.580;2023-06-19T10:19:20;21.70;99.90
56234;DHT22;42141;53.240;6.580;2023-06-19T10:21:50;21.50;99.90
56234;DHT22;42141;53.240;6.580;2023-06-19T10:24:17;20.50;99.90
56234;DHT22;42141;53.240;6.580;2023-06-19T10:27:04;20.10;99.90
56234;DHT22;42141;53.240;6.580;2023-06-19T10:29:44;21.20;99.90
56234;DHT22;42141;53.240;6.580;2023-06-19T10:32:13;20.40;99.90
56234;DHT22;42141;53.240;6.580;2023-06-19T10:34:49;20.40;99.90
56234;DHT22;42141;53.240;6.580;2023-06-19T10:37:15;21.10;99.90
56234;DHT22;42141;53.240;6.580;2023-06-19T10:39:42;21.20;99.90
56234;DHT22;42141;53.240;6.580;2023-06-19T10:42:09;21.20;99.90
56234;DHT22;42141;53.240;6.580;2023-06-19T10:44:35;22.10;99.90
56234;DHT22;42141;53.240;6.580;2023-06-19T10:47:02;21.20;99.90
56234;DHT22;42141;53.240;6.580;2023-06-19T10:49:28;21.30;99.90
56234;DHT22;42141;53.240;6.580;2023-06-19T10:51:54;21.50;99.90
56234;DHT22;42141;53.240;6.580;2023-06-19T10:54:25;21.70;99.90
56234;DHT22;42141;53.240;6.580;2023-06-19T10:56:51;21.80;99.90
56234;DHT22;42141;53.240;6.580;2023-06-19T10:59:17;21.90;99.90
56234;DHT22;42141;53.240;6.580;2023-06-19T11:01:48;22.00;99.90
56234;DHT22;42141;53.240;6.580;2023-06-19T11:04:16;22.20;99.90
56234;DHT22;42141;53.240;6.580;2023-06-19T11:06:43;22.40;99.90
56234;DHT22;42141;53.240;6.580;2023-06-19T11:09:11;22.50;99.90
56234;DHT22;42141;53.240;6.580;2023-06-19T11:11:39;22.60;99.90
56234;DHT22;42141;53.240;6.580;2023-06-19T11:14:05;22.60;99.90
56234;DHT22;42141;53.240;6.580;2023-06-19T11:16:32;22.60;99.90
56234;DHT22;42141;53.240;6.580;2023-06-19T11:18:59;22.70;99.90
56234;DHT22;42141;53.240;6.580;2023-06-19T11:21:32;22.80;99.90
56234;DHT22;42141;53.240;6.580;2023-06-19T11:24:01;22.80;99.90
56234;DHT22;42141;53.240;6.580;2023-06-19T11:26:28;22.80;99.90
56234;DHT22;42141;53.240;6.580;2023-06-19T11:28:54;22.70;99.90
56234;DHT22;42141;53.240;6.580;2023-06-19T11:31:26;22.80;99.90
56234;DHT22;42141;53.240;6.580;2023-06-19T11:33:59;22.90;99.90
56234;DHT22;42141;53.240;6.580;2023-06-19T11:36:27;23.10;99.90
56234;DHT22;42141;53.240;6.580;2023-06-19T11:38:55;23.20;99.90
56234;DHT22;42141;53.240;6.580;2023-06-19T11:41:28;23.30;99.90
56234;DHT22;42141;53.240;6.580;2023-06-19T11:44:07;23.50;99.90
56234;DHT22;42141;53.240;6.580;2023-06-19T11:46:36;23.50;99.90
56234;DHT22;42141;53.240;6.580;2023-06-19T11:49:11;23.60;99.90
56234;DHT22;42141;53.240;6.580;2023-06-19T11:51:38;23.60;99.90
56234;DHT22;42141;53.240;6.580;2023-06-19T11:54:11;23.60;99.90
56234;DHT22;42141;53.240;6.580;2023-06-19T11:56:40;23.60;99.90
56234;DHT22;42141;53.240;6.580;2023-06-19T11:59:06;23.70;99.90
56234;DHT22;42141;53.240;6.580;2023-06-19T12:01:35;23.80;99.90
56234;DHT22;42141;53.240;6.580;2023-06-19T12:04:02;24.00;99.90
56234;DHT22;42141;53.240;6.580;2023-06-19T12:06:29;24.20;99.90
56234;DHT22;42141;53.240;6.580;2023-06-19T12:08:55;24.20;99.90
56234;DHT22;42141;53.240;6.580;2023-06-19T12:11:21;24.20;99.90
56234;DHT22;42141;53.240;6.580;2023-06-19T12:13:47;23.40;99.90
56234;DHT22;42141;53.240;6.580;2023-06-19T12:16:13;24.20;99.90
56234;DHT22;42141;53.240;6.580;2023-06-19T12:18:40;24.10;99.90
56234;DHT22;42141;53.240;6.580;2023-06-19T12:21:06;23.90;99.90
56234;DHT22;42141;53.240;6.580;2023-06-19T12:23:32;23.90;99.90
56234;DHT22;42141;53.240;6.580;2023-06-19T12:25:58;23.80;99.90
56234;DHT22;42141;53.240;6.580;2023-06-19T12:28:24;23.70;99.90
56234;DHT22;42141;53.240;6.580;2023-06-19T12:30:51;23.60;99.90
56234;DHT22;42141;53.240;6.580;2023-06-19T12:33:18;23.70;99.90
56234;DHT22;42141;53.240;6.580;2023-06-19T12:35:44;23.60;99.90
56234;DHT22;42141;53.240;6.580;2023-06-19T12:38:10;23.60;99.90
56234;DHT22;42141;53.240;6.580;2023-06-19T12:40:37;23.60;99.90
56234;DHT22;42141;53.240;6.580;2023-06-19T12:43:04;23.70;99.90
56234;DHT22;42141;53.240;6.580;2023-06-19T12:45:30;23.80;99.90
56234;DHT22;42141;53.240;6.580;2023-06-19T12:47:55;23.90;99.90
56234;DHT22;42141;53.240;6.580;2023-06-19T12:50:21;23.90;99.90
56234;DHT22;42141;53.240;6.580;2023-06-19T12:52:48;24.00;99.90
56234;DHT22;42141;53.240;6.580;2023-06-19T12:55:14;24.30;99.90
56234;DHT22;42141;53.240;6.580;2023-06-19T12:57:39;24.50;99.90
56234;DHT22;42141;53.240;6.580;2023-06-19T13:00:11;24.60;99.50
56234;DHT22;42141;53.240;6.580;2023-06-19T13:02:40;24.70;99.10
56234;DHT22;42141;53.240;6.580;2023-06-19T13:05:11;24.70;99.00
56234;DHT22;42141;53.240;6.580;2023-06-19T13:07:36;24.60;98.90
56234;DHT22;42141;53.240;6.580;2023-06-19T13:10:02;24.70;98.90
56234;DHT22;42141;53.240;6.580;2023-06-19T13:12:29;24.80;98.60
56234;DHT22;42141;53.240;6.580;2023-06-19T13:14:55;24.90;98.50
56234;DHT22;42141;53.240;6.580;2023-06-19T13:17:20;25.20;98.40
56234;DHT22;42141;53.240;6.580;2023-06-19T13:19:48;25.10;98.00
56234;DHT22;42141;53.240;6.580;2023-06-19T13:22:13;25.00;97.90
56234;DHT22;42141;53.240;6.580;2023-06-19T13:24:39;24.70;97.80
56234;DHT22;42141;53.240;6.580;2023-06-19T13:27:05;24.30;98.10
56234;DHT22;42141;53.240;6.580;2023-06-19T13:29:31;24.60;98.00
56234;DHT22;42141;53.240;6.580;2023-06-19T13:31:58;24.60;98.00
56234;DHT22;42141;53.240;6.580;2023-06-19T13:34:23;24.80;97.70
56234;DHT22;42141;53.240;6.580;2023-06-19T13:36:49;25.10;97.50
56234;DHT22;42141;53.240;6.580;2023-06-19T13:39:16;25.30;97.10
56234;DHT22;42141;53.240;6.580;2023-06-19T13:41:45;25.50;96.70
56234;DHT22;42141;53.240;6.580;2023-06-19T13:44:10;25.60;96.50
56234;DHT22;42141;53.240;6.580;2023-06-19T13:46:37;25.80;96.30
56234;DHT22;42141;53.240;6.580;2023-06-19T13:49:06;25.80;96.10
56234;DHT22;42141;53.240;6.580;2023-06-19T13:51:32;25.80;96.00
56234;DHT22;42141;53.240;6.580;2023-06-19T13:53:58;25.70;96.00
56234;DHT22;42141;53.240;6.580;2023-06-19T13:56:24;25.70;95.90
56234;DHT22;42141;53.240;6.580;2023-06-19T13:58:49;25.80;95.80
56234;DHT22;42141;53.240;6.580;2023-06-19T14:01:16;27.30;96.00
56234;DHT22;42141;53.240;6.580;2023-06-19T14:03:41;26.20;95.10
56234;DHT22;42141;53.240;6.580;2023-06-19T14:06:08;26.50;94.60
56234;DHT22;42141;53.240;6.580;2023-06-19T14:08:34;26.70;93.90
56234;DHT22;42141;53.240;6.580;2023-06-19T14:10:59;26.70;93.40
56234;DHT22;42141;53.240;6.580;2023-06-19T14:13:25;26.90;93.10
56234;DHT22;42141;53.240;6.580;2023-06-19T14:15:52;26.90;92.80
56234;DHT22;42141;53.240;6.580;2023-06-19T14:18:18;26.90;92.70
56234;DHT22;42141;53.240;6.580;2023-06-19T14:20:44;26.90;92.70
56234;DHT22;42141;53.240;6.580;2023-06-19T14:23:10;26.90;92.60
56234;DHT22;42141;53.240;6.580;2023-06-19T14:25:36;26.80;92.10
56234;DHT22;42141;53.240;6.580;2023-06-19T14:28:01;26.60;91.90
56234;DHT22;42141;53.240;6.580;2023-06-19T14:30:27;26.60;91.90
56234;DHT22;42141;53.240;6.580;2023-06-19T14:32:53;26.80;92.00
56234;DHT22;42141;53.240;6.580;2023-06-19T14:35:19;26.90;91.90
56234;DHT22;42141;53.240;6.580;2023-06-19T14:37:45;27.00;91.70
56234;DHT22;42141;53.240;6.580;2023-06-19T14:40:11;25.70;90.70
56234;DHT22;42141;53.240;6.580;2023-06-19T14:42:37;27.10;90.80
56234;DHT22;42141;53.240;6.580;2023-06-19T14:45:04;27.10;90.90
56234;DHT22;42141;53.240;6.580;2023-06-19T14:47:30;27.10;90.80
56234;DHT22;42141;53.240;6.580;2023-06-19T14:49:55;27.20;91.40
56234;DHT22;42141;53.240;6.580;2023-06-19T14:52:21;27.50;90.90
56234;DHT22;42141;53.240;6.580;2023-06-19T14:54:47;27.60;90.50
56234;DHT22;42141;53.240;6.580;2023-06-19T14:57:13;27.50;90.10
56234;DHT22;42141;53.240;6.580;2023-06-19T14:59:39;27.40;89.70
56234;DHT22;42141;53.240;6.580;2023-06-19T15:02:05;27.30;89.60
56234;DHT22;42141;53.240;6.580;2023-06-19T15:04:32;27.20;89.20
56234;DHT22;42141;53.240;6.580;2023-06-19T15:06:58;27.20;89.30
56234;DHT22;42141;53.240;6.580;2023-06-19T15:09:24;27.30;89.40
56234;DHT22;42141;53.240;6.580;2023-06-19T15:11:51;27.40;89.60
56234;DHT22;42141;53.240;6.580;2023-06-19T15:14:18;27.50;89.00
56234;DHT22;42141;53.240;6.580;2023-06-19T15:16:44;27.50;88.40
56234;DHT22;42141;53.240;6.580;2023-06-19T15:19:09;27.50;87.80
56234;DHT22;42141;53.240;6.580;2023-06-19T15:21:35;27.50;87.10
56234;DHT22;42141;53.240;6.580;2023-06-19T15:24:01;27.50;86.80
56234;DHT22;42141;53.240;6.580;2023-06-19T15:26:26;27.60;86.10
56234;DHT22;42141;53.240;6.580;2023-06-19T15:28:53;27.60;85.10
56234;DHT22;42141;53.240;6.580;2023-06-19T15:31:22;27.50;85.90
56234;DHT22;42141;53.240;6.580;2023-06-19T15:33:49;27.50;83.90
56234;DHT22;42141;53.240;6.580;2023-06-19T15:36:15;26.00;83.20
56234;DHT22;42141;53.240;6.580;2023-06-19T15:38:41;27.40;84.50
56234;DHT22;42141;53.240;6.580;2023-06-19T15:41:07;27.40;84.10
56234;DHT22;42141;53.240;6.580;2023-06-19T15:43:33;27.50;83.60
56234;DHT22;42141;53.240;6.580;2023-06-19T15:45:59;27.50;83.20
56234;DHT22;42141;53.240;6.580;2023-06-19T15:48:27;27.60;83.30
56234;DHT22;42141;53.240;6.580;2023-06-19T15:50:53;27.70;82.70
56234;DHT22;42141;53.240;6.580;2023-06-19T15:53:19;27.50;82.60
56234;DHT22;42141;53.240;6.580;2023-06-19T15:55:44;27.20;82.80
56234;DHT22;42141;53.240;6.580;2023-06-19T15:58:12;27.30;82.60
56234;DHT22;42141;53.240;6.580;2023-06-19T16:00:38;27.30;82.80
56234;DHT22;42141;53.240;6.580;2023-06-19T16:03:06;27.20;82.70
56234;DHT22;42141;53.240;6.580;2023-06-19T16:05:32;27.00;82.30
56234;DHT22;42141;53.240;6.580;2023-06-19T16:07:57;26.90;82.50
56234;DHT22;42141;53.240;6.580;2023-06-19T16:10:23;26.80;82.90
56234;DHT22;42141;53.240;6.580;2023-06-19T16:12:49;26.70;82.60
56234;DHT22;42141;53.240;6.580;2023-06-19T16:15:15;26.60;82.20
56234;DHT22;42141;53.240;6.580;2023-06-19T16:17:43;26.60;82.80
56234;DHT22;42141;53.240;6.580;2023-06-19T16:20:11;26.50;82.20
56234;DHT22;42141;53.240;6.580;2023-06-19T16:22:37;26.50;82.40
56234;DHT22;42141;53.240;6.580;2023-06-19T16:25:06;26.40;82.70
56234;DHT22;42141;53.240;6.580;2023-06-19T16:27:34;26.40;82.90
56234;DHT22;42141;53.240;6.580;2023-06-19T16:30:00;26.30;83.00
56234;DHT22;42141;53.240;6.580;2023-06-19T16:32:27;26.30;83.00
56234;DHT22;42141;53.240;6.580;2023-06-19T16:34:53;26.20;82.80
56234;DHT22;42141;53.240;6.580;2023-06-19T16:37:19;26.10;83.10
56234;DHT22;42141;53.240;6.580;2023-06-19T16:39:44;26.00;83.20
56234;DHT22;42141;53.240;6.580;2023-06-19T16:42:10;25.90;82.80
56234;DHT22;42141;53.240;6.580;2023-06-19T16:44:36;25.80;82.30
56234;DHT22;42141;53.240;6.580;2023-06-19T16:47:01;25.80;82.00
56234;DHT22;42141;53.240;6.580;2023-06-19T16:49:27;25.60;82.00
56234;DHT22;42141;53.240;6.580;2023-06-19T16:51:53;25.60;81.60
56234;DHT22;42141;53.240;6.580;2023-06-19T16:54:19;25.40;81.20
56234;DHT22;42141;53.240;6.580;2023-06-19T16:56:44;25.40;81.40
56234;DHT22;42141;53.240;6.580;2023-06-19T16:59:10;25.20;82.00
56234;DHT22;42141;53.240;6.580;2023-06-19T17:01:36;25.10;81.60
56234;DHT22;42141;53.240;6.580;2023-06-19T17:04:02;25.00;81.30